GCC Airport (Northeast Wyoming Rgnl) Information

FAA: GCC - ICAO: KGCC

GCC Airport Location

State Wyoming
County Campbell
City Gillette
GCC Airport is 4 miles northwest of Gillette, WY.
Latitude 44-20-56.0690N
Longitude 105-32-21.7230W
Elevation 4,365ft

KGCC Airport METARs

METAR KGCC 281453Z AUTO 28013KT 10SM CLR 03/M04 A3024 RMK AO2 SLP251 T00331044 53013
Altimeter 30.24"
Temperature 3.3°C (37.9°F)
Wind 280° at 13KT
Clouds Skies are clear.
Visibility 10.0mi
Time observed: 2021-10-28T14:53:00Z

GCC Airport Details

Status Operational
Activation November 1937
Ownership Public
Usage Public
Chart CHEYENNE
ATC on-site Yes
Beacon schedule sunset-sunrise
Beacon color clear green

GCC Airport Contacts

Owner CAMPBELL CO
Owner address 2000 AIRPORT ROAD SUITE 108, GILLETTE, WY 82716
Owner phone 307-686-1042
Manager CHRIS RUSSELL
Manager address 3672 AVIATOR CT., CHEYENNE, WY 82009
Manager phone (307) 630-4775

GCC Airport (Northeast Wyoming Rgnl) Radio Frequencies

GCC (Airport) Radio Frequencies

UNICOM 122.95
Common traffic advisory frequency (CTAF) 118.5